Time;durP1;ratioP1;P1;durP2;ratioP2;P2;SDS_P1;SDS_P2;PMS_P1;PMS_P2;Temp;Humidity;BMP_temperature;BMP_pressure;BME280_temperature;BME280_humidity;BME280_pressure;Samples;Min_cycle;Max_cycle;Signal;HPM_P1;HPM_P2
2023/07/24 00:00:22;;;;;;;9.30;5.53;;;17.90;78.00;;;;;;2067482;28;20276;-83
2023/07/24 00:01:23;;;;;;;8.60;5.43;;;17.90;78.70;;;;;;2078644;28;20232;-82
2023/07/24 00:02:23;;;;;;;9.63;5.50;;;17.80;79.50;;;;;;2080101;28;20217;-81
2023/07/24 00:03:24;;;;;;;9.00;5.40;;;17.70;79.10;;;;;;2084869;28;20244;-83
2023/07/24 00:04:25;;;;;;;8.40;5.40;;;17.70;79.10;;;;;;2078587;28;20241;-82
2023/07/24 00:05:25;;;;;;;8.80;5.83;;;17.80;79.00;;;;;;2075521;28;20264;-83
2023/07/24 00:06:26;;;;;;;9.53;5.33;;;17.70;79.30;;;;;;2077915;28;20638;-83
2023/07/24 00:07:27;;;;;;;7.37;5.03;;;17.70;79.60;;;;;;2074968;28;20235;-83
2023/07/24 00:08:28;;;;;;;8.80;5.83;;;17.70;79.90;;;;;;2067346;28;20289;-82
2023/07/24 00:09:29;;;;;;;9.80;5.80;;;17.80;79.80;;;;;;2066542;28;20238;-83
2023/07/24 00:10:31;;;;;;;7.67;4.87;;;17.70;79.40;;;;;;2071424;28;20327;-82
2023/07/24 00:11:32;;;;;;;8.43;5.30;;;17.70;79.70;;;;;;2089707;28;20469;-83
2023/07/24 00:12:32;;;;;;;7.60;5.20;;;17.70;79.90;;;;;;2075197;28;20225;-83
2023/07/24 00:13:33;;;;;;;7.93;5.10;;;17.70;80.10;;;;;;2058785;28;20389;-82
2023/07/24 00:14:34;;;;;;;7.70;5.17;;;17.60;80.20;;;;;;2066281;28;20234;-84
2023/07/24 00:15:35;;;;;;;6.07;4.43;;;17.70;80.10;;;;;;2066353;28;20262;-82
2023/07/24 00:16:36;;;;;;;8.93;5.37;;;17.70;80.60;;;;;;2069531;28;20328;-82
2023/07/24 00:17:37;;;;;;;6.77;4.53;;;17.60;81.00;;;;;;2077622;28;20355;-83
2023/07/24 00:18:38;;;;;;;10.03;6.20;;;17.70;81.10;;;;;;2074745;28;20506;-82
2023/07/24 00:19:39;;;;;;;9.13;5.47;;;17.60;81.40;;;;;;2081141;28;20225;-82
2023/07/24 00:20:39;;;;;;;9.30;5.70;;;17.60;81.90;;;;;;2077053;28;20231;-83
2023/07/24 00:21:40;;;;;;;8.27;4.90;;;17.60;82.20;;;;;;2063028;28;20235;-83
2023/07/24 00:22:41;;;;;;;10.67;5.30;;;17.60;82.50;;;;;;2058347;28;20230;-82
2023/07/24 00:23:41;;;;;;;8.10;5.20;;;17.50;83.00;;;;;;2058213;28;20251;-82
2023/07/24 00:24:42;;;;;;;7.27;5.00;;;17.40;83.10;;;;;;2064278;28;20238;-84
2023/07/24 00:25:43;;;;;;;9.53;5.63;;;17.50;83.10;;;;;;2076062;28;20316;-82
2023/07/24 00:26:43;;;;;;;8.23;5.40;;;17.40;83.10;;;;;;2075578;28;20306;-82
2023/07/24 00:27:44;;;;;;;9.17;5.50;;;17.40;83.20;;;;;;2066620;28;20249;-81
2023/07/24 00:28:45;;;;;;;7.13;5.00;;;17.40;83.90;;;;;;2069457;28;20985;-82
2023/07/24 00:29:45;;;;;;;7.83;4.97;;;17.40;84.30;;;;;;2074281;28;20241;-82
2023/07/24 00:30:46;;;;;;;8.33;5.07;;;17.30;85.00;;;;;;2063073;28;20693;-83
2023/07/24 00:31:47;;;;;;;8.77;5.03;;;17.30;85.60;;;;;;2067996;28;20256;-82
2023/07/24 00:32:47;;;;;;;6.70;4.83;;;17.20;86.90;;;;;;2077844;28;20234;-83
2023/07/24 00:33:48;;;;;;;7.67;4.90;;;17.20;86.00;;;;;;2067086;28;20745;-82
2023/07/24 00:34:49;;;;;;;9.00;5.13;;;17.20;85.80;;;;;;2072815;28;20256;-84
2023/07/24 00:35:49;;;;;;;8.30;5.50;;;17.20;86.30;;;;;;2074323;28;20233;-83
2023/07/24 00:36:50;;;;;;;7.80;5.10;;;17.10;86.10;;;;;;2058254;28;20281;-83
2023/07/24 00:37:51;;;;;;;8.40;5.30;;;17.20;86.10;;;;;;2063039;28;20245;-83
2023/07/24 00:38:51;;;;;;;7.97;5.17;;;17.10;85.90;;;;;;2062935;28;20328;-82
2023/07/24 00:39:52;;;;;;;8.67;5.13;;;17.10;86.20;;;;;;2065750;28;20234;-83
2023/07/24 00:40:53;;;;;;;9.13;6.20;;;17.10;86.10;;;;;;2078054;28;20233;-84
2023/07/24 00:41:54;;;;;;;8.43;5.67;;;17.00;86.90;;;;;;2077919;28;20752;-83
2023/07/24 00:42:54;;;;;;;7.70;5.27;;;17.00;87.50;;;;;;2080813;28;20280;-83
2023/07/24 00:43:55;;;;;;;6.97;5.20;;;17.00;87.90;;;;;;2077174;28;20971;-83
2023/07/24 00:44:56;;;;;;;9.57;5.50;;;17.00;89.00;;;;;;2070959;28;20237;-82
2023/07/24 00:45:57;;;;;;;8.50;5.47;;;17.00;88.10;;;;;;2074037;28;20694;-83
2023/07/24 00:46:58;;;;;;;8.53;5.70;;;17.00;89.00;;;;;;2064375;28;20237;-83
2023/07/24 00:48:00;;;;;;;8.33;5.60;;;16.90;89.50;;;;;;2064241;28;20555;-83
2023/07/24 00:49:02;;;;;;;9.63;5.53;;;16.80;90.10;;;;;;2068942;28;20229;-82
2023/07/24 00:50:04;;;;;;;8.87;5.73;;;16.80;90.20;;;;;;2073867;28;20988;-82
2023/07/24 00:51:05;;;;;;;7.00;4.70;;;16.80;90.00;;;;;;2082000;28;20450;-82
2023/07/24 00:52:07;;;;;;;8.70;5.30;;;16.80;89.50;;;;;;2081850;28;20414;-81
2023/07/24 00:53:08;;;;;;;9.03;5.20;;;16.90;89.60;;;;;;2073463;28;20435;-83
2023/07/24 00:54:09;;;;;;;6.83;5.17;;;16.90;89.00;;;;;;2066927;28;20432;-83
2023/07/24 00:55:12;;;;;;;8.97;5.50;;;16.90;88.40;;;;;;2058804;28;20202;-84
2023/07/24 00:56:13;;;;;;;8.17;5.40;;;16.90;90.00;;;;;;2067086;28;20648;-83
2023/07/24 00:57:14;;;;;;;7.73;5.10;;;16.90;88.50;;;;;;2066160;28;20496;-83
2023/07/24 00:58:16;;;;;;;8.40;4.93;;;17.00;88.50;;;;;;2065549;28;20191;-82
2023/07/24 00:59:17;;;;;;;8.20;5.07;;;17.00;88.90;;;;;;2070586;28;20181;-83
2023/07/24 01:00:18;;;;;;;7.33;5.10;;;17.00;89.60;;;;;;2071228;28;20423;-84
2023/07/24 01:01:19;;;;;;;9.20;5.47;;;17.00;90.20;;;;;;2079850;28;20295;-82
2023/07/24 01:02:20;;;;;;;7.83;5.27;;;17.10;90.30;;;;;;2070925;28;20237;-83
2023/07/24 01:03:34;;;;;;;9.73;5.13;;;17.10;90.10;;;;;;2067863;28;20288;-83
2023/07/24 01:04:35;;;;;;;7.53;5.07;;;17.00;90.80;;;;;;2060079;28;20484;-83
2023/07/24 01:05:36;;;;;;;8.57;5.03;;;17.00;90.80;;;;;;2054839;28;20481;-83
2023/07/24 01:06:36;;;;;;;7.23;5.23;;;17.00;90.70;;;;;;2063387;28;20241;-83
2023/07/24 01:07:37;;;;;;;10.57;5.83;;;17.00;90.80;;;;;;2074076;28;20237;-83
2023/07/24 01:08:38;;;;;;;7.90;5.40;;;17.00;90.50;;;;;;2070889;28;20234;-83
2023/07/24 01:09:38;;;;;;;9.00;5.47;;;17.10;90.10;;;;;;2070307;28;20299;-84
2023/07/24 01:10:39;;;;;;;8.10;5.37;;;17.10;89.60;;;;;;2065117;28;20328;-84
2023/07/24 01:11:50;;;;;;;7.97;5.17;;;17.30;89.40;;;;;;2066203;28;20613;-84
2023/07/24 01:12:59;;;;;;;7.83;5.50;;;17.30;89.10;;;;;;2068785;28;20316;-83
2023/07/24 01:14:18;;;;;;;7.63;5.57;;;17.30;88.60;;;;;;2072799;28;20558;-83
2023/07/24 01:15:34;;;;;;;7.13;5.03;;;17.40;88.40;;;;;;2080881;28;20406;-83
2023/07/24 01:16:43;;;;;;;7.53;5.07;;;17.30;88.80;;;;;;2077845;28;20554;-83
2023/07/24 01:17:51;;;;;;;7.13;5.30;;;17.30;88.30;;;;;;2069974;28;20589;-84
2023/07/24 01:18:56;;;;;;;8.63;5.33;;;17.20;88.30;;;;;;2071053;28;20472;-82
2023/07/24 01:19:59;;;;;;;7.80;5.17;;;17.10;90.10;;;;;;2073424;28;20546;-83
2023/07/24 01:21:01;;;;;;;7.53;5.70;;;17.00;90.00;;;;;;2073121;28;20904;-84
2023/07/24 01:22:17;;;;;;;9.23;5.40;;;17.00;90.10;;;;;;2069784;28;20455;-82
2023/07/24 01:24:07;;;;;;;8.50;5.03;;;17.00;90.20;;;;;;2078222;28;20528;-82
2023/07/24 01:25:35;;;;;;;8.17;4.53;;;17.00;90.00;;;;;;2085126;28;20445;-83
2023/07/24 01:26:36;;;;;;;10.23;6.10;;;17.00;90.40;;;;;;2069284;28;20567;-82
2023/07/24 01:27:45;;;;;;;8.73;5.77;;;16.80;90.50;;;;;;2056186;28;20469;-83
2023/07/24 01:28:46;;;;;;;9.87;5.83;;;16.80;91.00;;;;;;2064184;28;21118;-82
2023/07/24 01:29:47;;;;;;;8.23;5.93;;;16.70;90.70;;;;;;2062175;28;20479;-83
2023/07/24 01:30:47;;;;;;;7.00;5.10;;;16.70;91.00;;;;;;2065432;28;20476;-83
2023/07/24 01:31:48;;;;;;;7.87;5.43;;;16.70;91.40;;;;;;2065493;28;20703;-82
2023/07/24 01:32:49;;;;;;;7.33;5.63;;;16.60;91.50;;;;;;2073056;28;20230;-83
2023/07/24 01:33:50;;;;;;;12.30;5.93;;;16.70;91.50;;;;;;2069153;28;20232;-83
2023/07/24 01:34:52;;;;;;;7.27;5.13;;;16.50;91.40;;;;;;2060285;28;20234;-83
2023/07/24 01:35:59;;;;;;;10.40;6.10;;;16.60;91.60;;;;;;2065268;28;20257;-82
2023/07/24 01:37:00;;;;;;;7.82;5.40;;;16.50;91.80;;;;;;2060516;28;20488;-82
2023/07/24 01:38:03;;;;;;;7.80;5.37;;;16.50;91.60;;;;;;2055909;28;20464;-83
2023/07/24 01:39:04;;;;;;;8.20;5.30;;;16.50;91.80;;;;;;2062123;28;20171;-82
2023/07/24 01:40:07;;;;;;;8.20;5.50;;;16.50;91.80;;;;;;2061478;28;20440;-83
2023/07/24 01:41:08;;;;;;;8.95;5.70;;;16.40;92.10;;;;;;2062174;28;20233;-82
2023/07/24 01:42:09;;;;;;;9.27;5.97;;;16.40;91.90;;;;;;2069294;28;20249;-84
2023/07/24 01:43:10;;;;;;;7.80;5.57;;;16.40;91.90;;;;;;2063561;28;20463;-83
2023/07/24 01:44:12;;;;;;;7.93;5.43;;;16.40;91.70;;;;;;2067503;28;20214;-82
2023/07/24 01:45:13;;;;;;;8.10;5.23;;;16.50;91.80;;;;;;2079172;28;20179;-82
2023/07/24 01:46:13;;;;;;;9.43;5.73;;;16.40;91.70;;;;;;2083778;28;20443;-83
2023/07/24 01:47:14;;;;;;;8.07;5.37;;;16.30;92.00;;;;;;2072859;28;20177;-84
2023/07/24 01:48:15;;;;;;;8.73;5.63;;;16.20;92.20;;;;;;2070669;28;20189;-84
2023/07/24 01:49:15;;;;;;;8.33;5.53;;;16.20;92.30;;;;;;2064919;28;20663;-84
2023/07/24 01:50:16;;;;;;;7.97;5.77;;;16.10;92.60;;;;;;2060786;28;20186;-84
2023/07/24 01:51:17;;;;;;;9.30;5.53;;;16.10;92.60;;;;;;2061476;28;20183;-83
2023/07/24 01:52:18;;;;;;;9.03;5.50;;;16.20;92.80;;;;;;2065105;28;20205;-84
2023/07/24 01:53:19;;;;;;;7.43;4.97;;;16.20;92.60;;;;;;2064813;28;20181;-83
2023/07/24 01:54:19;;;;;;;7.77;5.03;;;16.10;92.70;;;;;;2057223;28;20528;-83
2023/07/24 01:55:20;;;;;;;7.57;5.60;;;16.10;92.70;;;;;;2057369;28;20235;-84
2023/07/24 01:56:21;;;;;;;7.47;5.23;;;16.10;92.50;;;;;;2061241;28;20231;-82
2023/07/24 01:57:21;;;;;;;8.70;5.80;;;16.00;93.00;;;;;;2071993;28;20229;-84
2023/07/24 01:58:22;;;;;;;9.87;5.43;;;15.90;93.20;;;;;;2056814;28;20321;-84
2023/07/24 01:59:23;;;;;;;6.87;4.43;;;15.90;93.40;;;;;;2075348;28;20229;-82
2023/07/24 02:00:24;;;;;;;9.23;5.93;;;15.90;93.30;;;;;;2077553;28;20241;-82
2023/07/24 02:01:24;;;;;;;10.97;5.17;;;15.80;93.70;;;;;;2064081;28;20234;-83
2023/07/24 02:02:25;;;;;;;7.10;4.70;;;15.60;94.60;;;;;;2057859;28;20234;-82
2023/07/24 02:03:26;;;;;;;9.07;5.60;;;15.40;95.20;;;;;;2062980;28;20246;-83
2023/07/24 02:04:26;;;;;;;8.57;5.43;;;15.50;95.40;;;;;;2074708;28;20253;-83
2023/07/24 02:05:27;;;;;;;8.83;5.57;;;15.50;95.40;;;;;;2069798;28;20256;-83
2023/07/24 02:06:28;;;;;;;7.63;5.37;;;15.50;95.20;;;;;;2070559;28;20308;-84
2023/07/24 02:07:28;;;;;;;8.90;5.40;;;15.50;94.90;;;;;;2069367;28;20293;-83
2023/07/24 02:08:29;;;;;;;7.97;5.17;;;15.60;94.70;;;;;;2072471;28;20260;-82
2023/07/24 02:09:30;;;;;;;9.60;5.43;;;15.60;94.70;;;;;;2072928;28;20733;-83
2023/07/24 02:10:30;;;;;;;11.20;5.90;;;15.80;94.60;;;;;;2065017;28;20238;-83
2023/07/24 02:11:31;;;;;;;7.47;5.30;;;15.80;94.50;;;;;;2057326;28;20230;-83
2023/07/24 02:12:32;;;;;;;11.23;5.70;;;15.90;94.20;;;;;;2069285;28;20236;-83
2023/07/24 02:13:32;;;;;;;8.03;5.50;;;15.80;93.80;;;;;;2073670;28;20233;-83
2023/07/24 02:14:33;;;;;;;9.30;6.03;;;15.80;93.80;;;;;;2065896;28;20312;-83
2023/07/24 02:15:34;;;;;;;6.80;4.83;;;15.80;93.90;;;;;;2064829;28;20221;-84
2023/07/24 02:16:35;;;;;;;7.97;5.90;;;15.90;93.80;;;;;;2072893;28;20267;-83
2023/07/24 02:17:37;;;;;;;7.68;5.28;;;15.80;93.70;;;;;;2064625;28;20233;-83
2023/07/24 02:18:40;;;;;;;9.73;6.13;;;15.90;93.80;;;;;;2053733;28;20226;-83
2023/07/24 02:19:41;;;;;;;8.05;5.55;;;15.90;94.00;;;;;;2063849;28;20532;-83
2023/07/24 02:20:41;;;;;;;6.93;5.23;;;15.90;93.90;;;;;;2079204;28;20245;-84
2023/07/24 02:21:42;;;;;;;8.73;5.60;;;15.80;93.80;;;;;;2059923;28;20231;-83
2023/07/24 02:22:43;;;;;;;9.50;5.90;;;15.80;93.80;;;;;;2075357;28;20233;-83
2023/07/24 02:23:43;;;;;;;7.77;5.30;;;15.80;93.60;;;;;;2083910;28;20697;-83
2023/07/24 02:24:44;;;;;;;6.83;4.80;;;15.80;93.70;;;;;;2080949;28;20236;-83
2023/07/24 02:25:45;;;;;;;7.03;5.03;;;15.70;93.80;;;;;;2071772;28;20229;-83
2023/07/24 02:26:46;;;;;;;9.00;5.73;;;15.80;94.00;;;;;;2064062;28;20249;-83
2023/07/24 02:27:46;;;;;;;9.23;5.70;;;15.80;93.90;;;;;;2068534;28;20229;-83
2023/07/24 02:28:47;;;;;;;8.07;6.10;;;15.70;93.80;;;;;;2061703;28;20253;-84
2023/07/24 02:29:48;;;;;;;8.73;6.30;;;15.50;94.10;;;;;;2077228;28;20228;-83
2023/07/24 02:30:48;;;;;;;7.60;5.10;;;15.50;94.40;;;;;;2062108;28;20238;-84
2023/07/24 02:31:50;;;;;;;7.50;4.97;;;15.40;94.80;;;;;;2055751;28;20230;-83
2023/07/24 02:32:51;;;;;;;7.97;5.40;;;15.50;95.20;;;;;;2055848;28;20239;-83
2023/07/24 02:33:51;;;;;;;8.10;5.50;;;15.40;95.40;;;;;;2070472;28;20225;-84
2023/07/24 02:34:53;;;;;;;9.03;5.70;;;15.50;95.10;;;;;;2077214;28;20225;-85
2023/07/24 02:35:53;;;;;;;8.30;5.35;;;15.40;95.10;;;;;;2063798;28;20237;-82
2023/07/24 02:36:54;;;;;;;8.23;5.50;;;15.40;95.10;;;;;;2051639;28;20223;-83
2023/07/24 02:37:55;;;;;;;8.90;5.93;;;15.30;95.30;;;;;;2064476;28;20761;-83
2023/07/24 02:38:56;;;;;;;8.80;5.57;;;15.40;95.30;;;;;;2080037;28;20233;-82
2023/07/24 02:39:56;;;;;;;9.90;5.87;;;15.40;96.00;;;;;;2069240;28;20226;-83
2023/07/24 02:40:57;;;;;;;8.67;5.63;;;15.40;95.40;;;;;;2056309;28;20231;-83
2023/07/24 02:41:58;;;;;;;7.40;5.33;;;15.40;95.70;;;;;;2064427;28;20222;-83
2023/07/24 02:42:59;;;;;;;9.47;5.40;;;15.40;95.80;;;;;;2056685;28;20290;-82
2023/07/24 02:43:59;;;;;;;6.97;5.00;;;15.40;95.70;;;;;;2064692;28;20230;-83
2023/07/24 02:45:00;;;;;;;8.80;5.80;;;15.30;95.60;;;;;;2072966;28;20626;-83
2023/07/24 02:46:02;;;;;;;7.93;5.13;;;15.40;95.50;;;;;;2062202;28;20214;-82
2023/07/24 02:47:03;;;;;;;8.20;5.60;;;15.40;95.60;;;;;;2056699;28;20194;-83
2023/07/24 02:48:05;;;;;;;8.18;5.28;;;15.40;95.40;;;;;;2056412;28;20844;-82
2023/07/24 02:49:05;;;;;;;9.30;5.97;;;15.40;95.30;;;;;;2061289;28;20222;-83
2023/07/24 02:50:06;;;;;;;7.77;5.20;;;15.40;95.20;;;;;;2068040;28;20182;-83
2023/07/24 02:51:07;;;;;;;8.52;5.57;;;15.40;95.20;;;;;;2074716;28;20213;-84
2023/07/24 02:52:08;;;;;;;8.80;5.70;;;15.30;95.40;;;;;;2069002;28;20627;-82
2023/07/24 02:53:09;;;;;;;7.80;5.37;;;15.20;95.60;;;;;;2060653;28;20222;-83
2023/07/24 02:54:09;;;;;;;8.07;5.83;;;15.30;95.60;;;;;;2062374;28;20263;-84
2023/07/24 02:55:10;;;;;;;8.53;5.90;;;15.30;95.60;;;;;;2060636;28;20190;-83
2023/07/24 02:56:11;;;;;;;7.10;5.17;;;15.30;95.70;;;;;;2062630;28;20651;-82
2023/07/24 02:57:11;;;;;;;8.93;6.30;;;15.30;95.70;;;;;;2070757;28;20193;-84
2023/07/24 02:58:13;;;;;;;9.73;5.73;;;15.30;95.70;;;;;;2077758;28;20189;-84
2023/07/24 02:59:14;;;;;;;8.50;5.65;;;15.30;96.10;;;;;;2076068;28;20217;-83
2023/07/24 03:00:15;;;;;;;7.97;5.03;;;15.40;96.00;;;;;;2062301;28;20183;-83
2023/07/24 03:01:15;;;;;;;7.73;5.37;;;15.30;96.00;;;;;;2062916;28;20186;-82
2023/07/24 03:02:16;;;;;;;8.33;5.57;;;15.40;96.20;;;;;;2072540;28;20209;-84
2023/07/24 03:03:17;;;;;;;8.73;5.60;;;15.40;96.10;;;;;;2072531;28;20216;-83
2023/07/24 03:04:17;;;;;;;9.07;5.97;;;15.30;96.00;;;;;;2072447;28;20190;-84
2023/07/24 03:05:18;;;;;;;9.70;5.63;;;15.40;96.10;;;;;;2068344;28;20190;-83
2023/07/24 03:06:19;;;;;;;8.53;5.57;;;15.40;95.70;;;;;;2077154;28;20378;-83
2023/07/24 03:07:19;;;;;;;8.43;5.87;;;15.50;95.70;;;;;;2079103;28;20232;-82
2023/07/24 03:08:20;;;;;;;8.80;5.70;;;15.40;95.70;;;;;;2068185;28;20247;-83
2023/07/24 03:09:21;;;;;;;10.17;6.20;;;15.40;95.80;;;;;;2060435;28;20240;-83
2023/07/24 03:10:23;;;;;;;9.47;5.83;;;15.50;95.80;;;;;;2064172;28;20242;-84
2023/07/24 03:11:24;;;;;;;8.45;5.18;;;15.50;95.80;;;;;;2071536;28;20298;-83
2023/07/24 03:12:25;;;;;;;7.97;5.40;;;15.50;95.70;;;;;;2064123;28;20234;-82
2023/07/24 03:13:26;;;;;;;7.07;5.07;;;15.60;95.70;;;;;;2054679;28;20231;-83
2023/07/24 03:14:26;;;;;;;7.17;5.10;;;15.50;95.70;;;;;;2060523;28;20225;-83
2023/07/24 03:15:27;;;;;;;8.60;5.40;;;15.50;95.50;;;;;;2070650;28;20225;-84
2023/07/24 03:16:28;;;;;;;7.23;5.10;;;15.40;95.40;;;;;;2072351;28;20263;-82
2023/07/24 03:17:28;;;;;;;9.97;6.20;;;15.40;95.50;;;;;;2064847;28;20254;-84
2023/07/24 03:18:29;;;;;;;8.83;5.87;;;15.40;95.60;;;;;;2063213;28;20699;-83
2023/07/24 03:19:30;;;;;;;7.60;6.00;;;15.30;95.70;;;;;;2064378;28;20253;-83
2023/07/24 03:20:30;;;;;;;8.93;5.83;;;15.40;95.70;;;;;;2062103;28;20390;-83
2023/07/24 03:21:31;;;;;;;8.40;5.60;;;15.30;95.70;;;;;;2070754;28;20803;-83
2023/07/24 03:22:32;;;;;;;10.70;6.07;;;15.30;95.70;;;;;;2071556;28;20240;-84
2023/07/24 03:23:32;;;;;;;10.00;6.23;;;15.40;95.70;;;;;;2071357;28;20764;-83
2023/07/24 03:24:34;;;;;;;9.07;5.87;;;15.40;95.60;;;;;;2062876;28;20226;-83
2023/07/24 03:25:35;;;;;;;8.30;5.55;;;15.30;95.80;;;;;;2056568;28;20285;-84
2023/07/24 03:26:36;;;;;;;8.30;5.85;;;15.40;95.60;;;;;;2064506;28;20226;-83
2023/07/24 03:27:37;;;;;;;8.67;5.50;;;15.40;95.70;;;;;;2070183;28;20785;-82
2023/07/24 03:28:37;;;;;;;8.00;5.57;;;15.40;95.70;;;;;;2066174;28;20230;-83
2023/07/24 03:29:40;;;;;;;9.17;5.90;;;15.40;95.80;;;;;;2064137;28;20222;-82
2023/07/24 03:30:41;;;;;;;7.32;5.28;;;15.50;95.70;;;;;;2065363;28;20238;-83
2023/07/24 03:31:42;;;;;;;7.73;5.90;;;15.50;95.70;;;;;;2073255;28;20241;-83
2023/07/24 03:32:42;;;;;;;8.93;5.80;;;15.60;95.50;;;;;;2072690;28;20228;-83
2023/07/24 03:33:43;;;;;;;8.23;5.70;;;15.60;95.60;;;;;;2072598;28;20233;-83
2023/07/24 03:34:44;;;;;;;8.27;5.27;;;15.60;95.70;;;;;;2065734;28;20293;-84
2023/07/24 03:35:44;;;;;;;8.00;5.10;;;15.60;95.80;;;;;;2070583;28;20229;-83
2023/07/24 03:36:45;;;;;;;8.53;6.10;;;15.50;95.60;;;;;;2077198;28;20244;-82
2023/07/24 03:37:46;;;;;;;7.50;5.87;;;15.50;96.20;;;;;;2070563;28;20308;-83
2023/07/24 03:38:46;;;;;;;12.97;5.93;;;15.40;96.40;;;;;;2062782;28;20236;-82
2023/07/24 03:39:47;;;;;;;9.67;5.90;;;15.40;96.40;;;;;;2063076;28;20374;-84
2023/07/24 03:40:48;;;;;;;8.67;5.90;;;15.60;96.20;;;;;;2062100;28;20237;-82
2023/07/24 03:41:49;;;;;;;9.00;5.57;;;15.60;96.40;;;;;;2063608;28;20246;-84
2023/07/24 03:42:49;;;;;;;6.73;4.90;;;15.60;95.70;;;;;;2063936;28;20321;-83
2023/07/24 03:43:50;;;;;;;8.37;5.87;;;15.60;95.50;;;;;;2064104;28;20251;-83
2023/07/24 03:44:51;;;;;;;7.63;5.27;;;15.60;95.20;;;;;;2072395;28;20253;-82
2023/07/24 03:45:52;;;;;;;8.87;5.67;;;15.80;94.90;;;;;;2061185;28;20234;-82
2023/07/24 03:46:52;;;;;;;7.10;5.20;;;15.80;94.60;;;;;;2055924;28;20368;-83
2023/07/24 03:47:53;;;;;;;9.43;5.77;;;15.70;94.70;;;;;;2063537;28;20756;-82
2023/07/24 03:48:55;;;;;;;8.80;5.53;;;15.80;95.40;;;;;;2081942;28;20244;-83
2023/07/24 03:49:56;;;;;;;6.70;4.87;;;15.70;95.00;;;;;;2075808;28;20226;-83
2023/07/24 03:51:00;;;;;;;9.23;6.30;;;15.70;95.20;;;;;;2071735;28;20471;-84
2023/07/24 03:52:00;;;;;;;8.60;6.15;;;15.80;95.20;;;;;;2080453;28;20601;-83
2023/07/24 03:53:01;;;;;;;7.60;6.00;;;15.80;94.90;;;;;;2071239;28;20216;-83
2023/07/24 03:54:02;;;;;;;7.77;5.27;;;15.70;94.90;;;;;;2063069;28;20606;-83
2023/07/24 03:55:03;;;;;;;8.70;5.70;;;15.80;94.80;;;;;;2063704;28;20194;-83
2023/07/24 03:56:05;;;;;;;6.90;5.32;;;15.70;95.00;;;;;;2064896;28;20259;-83
2023/07/24 03:57:06;;;;;;;9.30;6.15;;;15.70;95.00;;;;;;2075187;28;20201;-83
2023/07/24 03:58:07;;;;;;;8.33;5.67;;;15.80;94.70;;;;;;2073874;28;20193;-82
2023/07/24 03:59:07;;;;;;;8.37;5.57;;;15.80;94.70;;;;;;2068458;28;20202;-83
2023/07/24 04:00:09;;;;;;;7.27;5.33;;;15.90;94.60;;;;;;2074262;28;20189;-82
2023/07/24 04:01:10;;;;;;;7.88;5.40;;;15.90;94.60;;;;;;2065552;28;20730;-83
2023/07/24 04:02:10;;;;;;;7.67;5.17;;;16.00;94.70;;;;;;2066198;28;20205;-84
2023/07/24 04:03:11;;;;;;;7.93;5.73;;;15.90;94.40;;;;;;2058658;28;20187;-83
2023/07/24 04:04:12;;;;;;;10.23;5.90;;;16.00;94.00;;;;;;2066473;28;20706;-83
2023/07/24 04:05:13;;;;;;;8.90;6.03;;;16.00;94.10;;;;;;2071066;28;20681;-82
2023/07/24 04:06:13;;;;;;;8.00;5.83;;;15.90;94.40;;;;;;2072540;28;20186;-82
2023/07/24 04:07:14;;;;;;;8.13;6.00;;;15.80;94.50;;;;;;2068292;28;20567;-82
2023/07/24 04:08:15;;;;;;;8.77;6.47;;;15.90;95.00;;;;;;2068421;28;20183;-83
2023/07/24 04:09:15;;;;;;;8.70;5.87;;;15.80;94.80;;;;;;2070504;28;20171;-82
2023/07/24 04:10:16;;;;;;;7.93;5.30;;;15.80;94.90;;;;;;2069301;28;20194;-82
2023/07/24 04:11:17;;;;;;;7.93;5.77;;;15.80;94.90;;;;;;2065121;28;20195;-82
2023/07/24 04:12:18;;;;;;;9.60;5.83;;;15.80;95.00;;;;;;2072815;28;20190;-83
2023/07/24 04:13:18;;;;;;;8.10;5.53;;;15.70;95.50;;;;;;2063255;28;20175;-82
2023/07/24 04:14:19;;;;;;;7.20;5.67;;;15.70;95.40;;;;;;2075273;28;20250;-82
2023/07/24 04:15:20;;;;;;;7.93;5.23;;;15.60;95.60;;;;;;2086490;28;20257;-82
2023/07/24 04:16:21;;;;;;;8.60;5.80;;;15.70;95.50;;;;;;2080429;28;20237;-83
2023/07/24 04:17:22;;;;;;;8.20;5.60;;;15.80;95.10;;;;;;2080188;28;20232;-81
2023/07/24 04:18:22;;;;;;;9.00;5.87;;;15.80;95.00;;;;;;2072704;28;20293;-82
2023/07/24 04:19:23;;;;;;;8.27;5.60;;;15.80;94.90;;;;;;2072777;28;20452;-82
2023/07/24 04:20:24;;;;;;;9.27;5.47;;;15.80;95.00;;;;;;2077913;28;20289;-83
2023/07/24 04:21:24;;;;;;;8.20;6.00;;;15.90;95.30;;;;;;2078476;28;20551;-82
2023/07/24 04:22:25;;;;;;;10.13;6.37;;;15.80;95.00;;;;;;2076987;28;20233;-81
2023/07/24 04:23:27;;;;;;;8.07;5.60;;;15.90;95.00;;;;;;2071559;28;20238;-82
2023/07/24 04:24:28;;;;;;;7.93;5.70;;;15.90;94.90;;;;;;2075415;28;20226;-82
2023/07/24 04:25:28;;;;;;;9.23;6.10;;;15.90;94.70;;;;;;2077449;28;20462;-82
2023/07/24 04:26:29;;;;;;;7.83;5.30;;;15.90;94.70;;;;;;2079908;28;20229;-82
2023/07/24 04:27:30;;;;;;;8.33;5.73;;;16.00;95.00;;;;;;2078305;28;20245;-82
2023/07/24 04:28:31;;;;;;;7.43;5.27;;;16.00;94.90;;;;;;2075787;28;20844;-85
2023/07/24 04:29:31;;;;;;;8.30;5.87;;;16.10;94.60;;;;;;2074322;28;20241;-84
2023/07/24 04:30:33;;;;;;;8.77;5.50;;;16.20;94.20;;;;;;2082156;28;21218;-83
2023/07/24 04:31:33;;;;;;;7.50;5.40;;;16.20;93.80;;;;;;2071421;28;20243;-83
2023/07/24 04:32:34;;;;;;;8.03;5.87;;;16.30;93.50;;;;;;2069519;28;20549;-83
2023/07/24 04:33:35;;;;;;;10.27;5.50;;;16.30;93.40;;;;;;2075088;28;20706;-82
2023/07/24 04:34:37;;;;;;;9.00;6.30;;;16.40;93.10;;;;;;2069089;28;20230;-82
2023/07/24 04:35:38;;;;;;;9.83;5.90;;;16.40;92.90;;;;;;2069127;28;20304;-82
2023/07/24 04:36:38;;;;;;;8.33;5.80;;;16.50;92.90;;;;;;2071875;28;20700;-83
2023/07/24 04:37:39;;;;;;;6.97;5.07;;;16.40;93.00;;;;;;2076882;28;20248;-83
2023/07/24 04:38:40;;;;;;;9.17;6.00;;;16.40;92.70;;;;;;2076523;28;20233;-84
2023/07/24 04:39:41;;;;;;;8.17;5.47;;;16.60;92.60;;;;;;2071883;28;20226;-83
2023/07/24 04:40:45;;;;;;;8.47;6.10;;;16.50;92.60;;;;;;2074427;28;20243;-82
2023/07/24 04:41:45;;;;;;;8.43;6.20;;;16.40;92.90;;;;;;2054341;28;20230;-83
2023/07/24 04:42:46;;;;;;;8.93;6.07;;;16.50;92.90;;;;;;2066614;28;20563;-83
2023/07/24 04:43:47;;;;;;;9.97;6.63;;;16.50;92.70;;;;;;2070815;28;20237;-83
2023/07/24 04:44:47;;;;;;;8.93;6.03;;;16.40;92.60;;;;;;2074550;28;20240;-83
2023/07/24 04:45:48;;;;;;;8.53;5.73;;;16.40;92.90;;;;;;2062732;28;20230;-84
2023/07/24 04:46:50;;;;;;;9.37;6.37;;;16.50;92.90;;;;;;2063108;28;20250;-83
2023/07/24 04:47:50;;;;;;;8.37;6.17;;;16.40;92.80;;;;;;2068056;28;20222;-84
2023/07/24 04:48:51;;;;;;;8.30;6.80;;;16.60;92.70;;;;;;2073974;28;20531;-83
2023/07/24 04:49:52;;;;;;;11.33;6.57;;;16.60;92.70;;;;;;2070055;28;20259;-84
2023/07/24 04:50:56;;;;;;;13.07;6.30;;;16.50;93.00;;;;;;2070519;28;20772;-84
2023/07/24 04:51:57;;;;;;;8.23;5.63;;;16.40;93.80;;;;;;2074790;28;20225;-82
2023/07/24 04:52:57;;;;;;;9.20;5.83;;;16.40;93.60;;;;;;2075807;28;20486;-82
2023/07/24 04:53:58;;;;;;;9.43;5.30;;;16.30;93.70;;;;;;2084208;28;20225;-83
2023/07/24 04:54:59;;;;;;;9.30;6.10;;;16.40;93.40;;;;;;2083788;28;20232;-82
2023/07/24 04:55:59;;;;;;;9.63;5.67;;;16.50;93.30;;;;;;2079663;28;20225;-82
2023/07/24 04:57:00;;;;;;;8.63;5.57;;;16.50;93.80;;;;;;2087840;28;20189;-82
2023/07/24 04:58:01;;;;;;;8.50;6.03;;;16.30;95.00;;;;;;2087271;28;20185;-83
2023/07/24 04:59:01;;;;;;;9.07;5.67;;;16.30;94.60;;;;;;2078200;28;20189;-83
2023/07/24 05:00:03;;;;;;;8.40;6.03;;;16.30;94.40;;;;;;2069220;28;20193;-83
2023/07/24 05:01:04;;;;;;;7.63;5.73;;;16.30;94.60;;;;;;2074901;28;20973;-83
2023/07/24 05:02:05;;;;;;;10.27;5.97;;;16.30;94.80;;;;;;2067844;28;20439;-85
2023/07/24 05:03:11;;;;;;;7.93;5.60;;;16.20;94.70;;;;;;2071523;28;20506;-83
2023/07/24 05:04:11;;;;;;;7.93;5.80;;;16.20;94.80;;;;;;2070436;28;20193;-84
2023/07/24 05:05:12;;;;;;;8.27;5.97;;;16.30;95.20;;;;;;2071758;28;20455;-84
2023/07/24 05:06:13;;;;;;;7.37;5.30;;;16.20;95.10;;;;;;2080927;28;20189;-84
2023/07/24 05:07:13;;;;;;;9.90;6.40;;;16.10;95.20;;;;;;2073613;28;20186;-85
2023/07/24 05:08:14;;;;;;;8.43;5.73;;;16.30;95.10;;;;;;2065932;28;20277;-84
2023/07/24 05:09:15;;;;;;;9.10;5.67;;;16.30;95.10;;;;;;2072041;28;20638;-84
2023/07/24 05:10:15;;;;;;;8.13;5.87;;;16.30;94.90;;;;;;2074020;28;20227;-84
2023/07/24 05:11:16;;;;;;;9.43;5.90;;;16.30;94.70;;;;;;2067089;28;20183;-82
2023/07/24 05:12:17;;;;;;;8.07;5.60;;;16.40;94.60;;;;;;2064782;28;20229;-84
2023/07/24 05:13:17;;;;;;;8.90;5.90;;;16.50;94.60;;;;;;2063594;28;20229;-84
2023/07/24 05:14:18;;;;;;;9.20;5.67;;;16.50;94.50;;;;;;2070650;28;20213;-83
2023/07/24 05:15:19;;;;;;;8.77;5.77;;;16.60;94.50;;;;;;2065144;28;20230;-85
2023/07/24 05:16:20;;;;;;;9.40;6.07;;;16.60;94.40;;;;;;2066647;28;20225;-83
2023/07/24 05:17:20;;;;;;;8.97;5.90;;;16.50;94.60;;;;;;2082428;28;20368;-84
2023/07/24 05:18:21;;;;;;;10.53;6.60;;;16.50;94.60;;;;;;2080150;28;20315;-84
2023/07/24 05:19:22;;;;;;;9.87;5.77;;;16.40;94.80;;;;;;2057436;28;20230;-85